sensor_id;sensor_type;location;lat;lon;timestamp;P1;durP1;ratioP1;P2;durP2;ratioP2
3267;SDS011;1646;52.450;13.326;2023-02-28T00:01:43;7.33;;;2.57;;
3267;SDS011;1646;52.450;13.326;2023-02-28T00:06:41;3.60;;;2.20;;
3267;SDS011;1646;52.450;13.326;2023-02-28T00:11:41;6.90;;;3.20;;
3267;SDS011;1646;52.450;13.326;2023-02-28T00:16:39;5.70;;;3.33;;
3267;SDS011;1646;52.450;13.326;2023-02-28T00:21:38;5.57;;;3.20;;
3267;SDS011;1646;52.450;13.326;2023-02-28T00:26:37;5.90;;;3.43;;
3267;SDS011;1646;52.450;13.326;2023-02-28T00:31:36;9.23;;;3.97;;
3267;SDS011;1646;52.450;13.326;2023-02-28T00:36:35;7.70;;;4.17;;
3267;SDS011;1646;52.450;13.326;2023-02-28T00:41:33;7.83;;;3.40;;
3267;SDS011;1646;52.450;13.326;2023-02-28T00:46:31;6.97;;;3.80;;
3267;SDS011;1646;52.450;13.326;2023-02-28T00:51:31;6.83;;;3.60;;
3267;SDS011;1646;52.450;13.326;2023-02-28T00:56:29;8.23;;;4.77;;
3267;SDS011;1646;52.450;13.326;2023-02-28T01:01:27;7.67;;;3.80;;
3267;SDS011;1646;52.450;13.326;2023-02-28T01:06:27;6.30;;;3.80;;
3267;SDS011;1646;52.450;13.326;2023-02-28T01:11:27;8.40;;;4.60;;
3267;SDS011;1646;52.450;13.326;2023-02-28T01:16:26;9.60;;;3.90;;
3267;SDS011;1646;52.450;13.326;2023-02-28T01:21:24;6.83;;;3.57;;
3267;SDS011;1646;52.450;13.326;2023-02-28T01:26:23;6.80;;;3.90;;
3267;SDS011;1646;52.450;13.326;2023-02-28T01:31:23;6.10;;;3.97;;
3267;SDS011;1646;52.450;13.326;2023-02-28T01:36:23;7.13;;;3.97;;
3267;SDS011;1646;52.450;13.326;2023-02-28T01:41:25;6.77;;;4.37;;
3267;SDS011;1646;52.450;13.326;2023-02-28T01:46:26;10.40;;;3.97;;
3267;SDS011;1646;52.450;13.326;2023-02-28T01:51:25;9.43;;;3.80;;
3267;SDS011;1646;52.450;13.326;2023-02-28T01:56:27;8.50;;;4.43;;
3267;SDS011;1646;52.450;13.326;2023-02-28T02:01:31;10.20;;;4.20;;
3267;SDS011;1646;52.450;13.326;2023-02-28T02:06:30;9.90;;;4.60;;
3267;SDS011;1646;52.450;13.326;2023-02-28T02:11:32;9.73;;;4.77;;
3267;SDS011;1646;52.450;13.326;2023-02-28T02:16:37;12.73;;;4.20;;
3267;SDS011;1646;52.450;13.326;2023-02-28T02:21:56;6.50;;;4.10;;
3267;SDS011;1646;52.450;13.326;2023-02-28T02:27:15;7.87;;;4.43;;
3267;SDS011;1646;52.450;13.326;2023-02-28T02:37:47;6.67;;;4.50;;
3267;SDS011;1646;52.450;13.326;2023-02-28T02:42:50;8.37;;;4.40;;
3267;SDS011;1646;52.450;13.326;2023-02-28T02:47:53;8.57;;;5.23;;
3267;SDS011;1646;52.450;13.326;2023-02-28T02:52:58;7.63;;;4.43;;
3267;SDS011;1646;52.450;13.326;2023-02-28T02:58:00;7.40;;;4.10;;
3267;SDS011;1646;52.450;13.326;2023-02-28T03:03:01;9.63;;;5.87;;
3267;SDS011;1646;52.450;13.326;2023-02-28T03:08:04;9.10;;;4.90;;
3267;SDS011;1646;52.450;13.326;2023-02-28T03:18:42;7.50;;;4.80;;
3267;SDS011;1646;52.450;13.326;2023-02-28T03:23:51;9.60;;;4.90;;
3267;SDS011;1646;52.450;13.326;2023-02-28T03:29:01;10.00;;;5.40;;
3267;SDS011;1646;52.450;13.326;2023-02-28T03:34:04;13.30;;;5.77;;
3267;SDS011;1646;52.450;13.326;2023-02-28T03:39:08;11.30;;;5.73;;
3267;SDS011;1646;52.450;13.326;2023-02-28T03:44:09;9.03;;;4.67;;
3267;SDS011;1646;52.450;13.326;2023-02-28T03:49:13;13.43;;;5.60;;
3267;SDS011;1646;52.450;13.326;2023-02-28T03:54:17;13.53;;;5.40;;
3267;SDS011;1646;52.450;13.326;2023-02-28T03:59:20;10.27;;;5.40;;
3267;SDS011;1646;52.450;13.326;2023-02-28T04:04:23;12.33;;;5.43;;
3267;SDS011;1646;52.450;13.326;2023-02-28T04:09:23;9.77;;;4.93;;
3267;SDS011;1646;52.450;13.326;2023-02-28T04:14:21;17.23;;;6.53;;
3267;SDS011;1646;52.450;13.326;2023-02-28T04:19:20;11.77;;;5.90;;
3267;SDS011;1646;52.450;13.326;2023-02-28T04:24:19;10.70;;;5.03;;
3267;SDS011;1646;52.450;13.326;2023-02-28T04:29:20;8.93;;;5.50;;
3267;SDS011;1646;52.450;13.326;2023-02-28T04:34:20;11.43;;;5.27;;
3267;SDS011;1646;52.450;13.326;2023-02-28T04:39:18;13.93;;;5.80;;
3267;SDS011;1646;52.450;13.326;2023-02-28T04:44:17;13.40;;;6.07;;
3267;SDS011;1646;52.450;13.326;2023-02-28T04:49:16;10.77;;;5.80;;
3267;SDS011;1646;52.450;13.326;2023-02-28T04:54:14;9.30;;;5.33;;
3267;SDS011;1646;52.450;13.326;2023-02-28T04:59:14;11.93;;;5.30;;
3267;SDS011;1646;52.450;13.326;2023-02-28T05:04:12;10.50;;;5.87;;
3267;SDS011;1646;52.450;13.326;2023-02-28T05:09:12;16.70;;;6.47;;
3267;SDS011;1646;52.450;13.326;2023-02-28T05:14:11;12.60;;;5.67;;
3267;SDS011;1646;52.450;13.326;2023-02-28T05:19:11;8.40;;;5.43;;
3267;SDS011;1646;52.450;13.326;2023-02-28T05:24:10;12.07;;;5.27;;
3267;SDS011;1646;52.450;13.326;2023-02-28T05:29:10;11.33;;;5.90;;
3267;SDS011;1646;52.450;13.326;2023-02-28T05:34:08;9.93;;;5.63;;
3267;SDS011;1646;52.450;13.326;2023-02-28T05:39:07;12.80;;;6.23;;
3267;SDS011;1646;52.450;13.326;2023-02-28T05:44:11;12.37;;;6.57;;
3267;SDS011;1646;52.450;13.326;2023-02-28T05:49:09;10.10;;;6.13;;
3267;SDS011;1646;52.450;13.326;2023-02-28T05:54:07;17.40;;;6.67;;
3267;SDS011;1646;52.450;13.326;2023-02-28T05:59:10;12.83;;;5.87;;
3267;SDS011;1646;52.450;13.326;2023-02-28T06:04:09;11.90;;;5.90;;
3267;SDS011;1646;52.450;13.326;2023-02-28T06:09:26;11.60;;;7.10;;
3267;SDS011;1646;52.450;13.326;2023-02-28T06:14:26;12.27;;;6.40;;
3267;SDS011;1646;52.450;13.326;2023-02-28T06:19:25;17.07;;;7.10;;
3267;SDS011;1646;52.450;13.326;2023-02-28T06:24:24;14.50;;;7.10;;
3267;SDS011;1646;52.450;13.326;2023-02-28T06:29:24;13.13;;;6.60;;
3267;SDS011;1646;52.450;13.326;2023-02-28T06:34:24;10.20;;;5.80;;
3267;SDS011;1646;52.450;13.326;2023-02-28T06:39:22;13.03;;;6.50;;
3267;SDS011;1646;52.450;13.326;2023-02-28T06:44:20;15.07;;;6.80;;
3267;SDS011;1646;52.450;13.326;2023-02-28T06:49:19;11.73;;;6.20;;
3267;SDS011;1646;52.450;13.326;2023-02-28T06:54:18;11.57;;;6.40;;
3267;SDS011;1646;52.450;13.326;2023-02-28T06:59:17;15.13;;;6.90;;
3267;SDS011;1646;52.450;13.326;2023-02-28T07:04:15;13.97;;;6.60;;
3267;SDS011;1646;52.450;13.326;2023-02-28T07:09:13;13.10;;;6.73;;
3267;SDS011;1646;52.450;13.326;2023-02-28T07:14:13;11.63;;;6.40;;
3267;SDS011;1646;52.450;13.326;2023-02-28T07:19:11;13.47;;;7.53;;
3267;SDS011;1646;52.450;13.326;2023-02-28T07:24:10;12.53;;;6.40;;
3267;SDS011;1646;52.450;13.326;2023-02-28T07:29:08;14.07;;;6.00;;
3267;SDS011;1646;52.450;13.326;2023-02-28T07:34:08;14.53;;;6.67;;
3267;SDS011;1646;52.450;13.326;2023-02-28T07:39:06;13.07;;;5.90;;
3267;SDS011;1646;52.450;13.326;2023-02-28T07:44:05;10.93;;;6.43;;
3267;SDS011;1646;52.450;13.326;2023-02-28T07:49:04;11.90;;;5.43;;
3267;SDS011;1646;52.450;13.326;2023-02-28T07:54:04;10.67;;;5.50;;
3267;SDS011;1646;52.450;13.326;2023-02-28T07:59:02;16.03;;;5.33;;
3267;SDS011;1646;52.450;13.326;2023-02-28T08:04:01;9.27;;;4.10;;
3267;SDS011;1646;52.450;13.326;2023-02-28T08:08:59;7.57;;;4.03;;
3267;SDS011;1646;52.450;13.326;2023-02-28T08:13:59;7.40;;;3.87;;
3267;SDS011;1646;52.450;13.326;2023-02-28T08:18:57;6.63;;;2.77;;
3267;SDS011;1646;52.450;13.326;2023-02-28T08:23:56;4.73;;;3.10;;
3267;SDS011;1646;52.450;13.326;2023-02-28T08:28:54;5.00;;;3.33;;
3267;SDS011;1646;52.450;13.326;2023-02-28T08:33:57;5.20;;;2.77;;
3267;SDS011;1646;52.450;13.326;2023-02-28T08:38:56;4.73;;;2.33;;
3267;SDS011;1646;52.450;13.326;2023-02-28T08:43:54;12.80;;;4.63;;
3267;SDS011;1646;52.450;13.326;2023-02-28T08:48:53;3.70;;;2.47;;
3267;SDS011;1646;52.450;13.326;2023-02-28T08:53:53;3.30;;;1.70;;
3267;SDS011;1646;52.450;13.326;2023-02-28T08:58:53;3.00;;;1.70;;
3267;SDS011;1646;52.450;13.326;2023-02-28T09:03:53;4.13;;;2.10;;
3267;SDS011;1646;52.450;13.326;2023-02-28T09:08:58;4.67;;;2.40;;
3267;SDS011;1646;52.450;13.326;2023-02-28T09:13:58;2.70;;;2.10;;
3267;SDS011;1646;52.450;13.326;2023-02-28T09:18:56;2.20;;;1.97;;
3267;SDS011;1646;52.450;13.326;2023-02-28T09:23:54;6.40;;;2.83;;
3267;SDS011;1646;52.450;13.326;2023-02-28T09:28:54;3.23;;;2.30;;
3267;SDS011;1646;52.450;13.326;2023-02-28T09:33:56;11.73;;;2.40;;
3267;SDS011;1646;52.450;13.326;2023-02-28T09:38:55;2.37;;;1.90;;
3267;SDS011;1646;52.450;13.326;2023-02-28T09:43:56;4.10;;;2.70;;
3267;SDS011;1646;52.450;13.326;2023-02-28T09:48:55;2.50;;;1.87;;
3267;SDS011;1646;52.450;13.326;2023-02-28T09:53:56;5.13;;;2.50;;
3267;SDS011;1646;52.450;13.326;2023-02-28T09:59:00;3.37;;;2.13;;
3267;SDS011;1646;52.450;13.326;2023-02-28T10:04:00;2.07;;;1.70;;
3267;SDS011;1646;52.450;13.326;2023-02-28T10:09:06;3.70;;;2.40;;
3267;SDS011;1646;52.450;13.326;2023-02-28T10:14:12;7.30;;;2.00;;
3267;SDS011;1646;52.450;13.326;2023-02-28T10:19:14;5.70;;;2.67;;
3267;SDS011;1646;52.450;13.326;2023-02-28T10:24:16;3.53;;;1.47;;
3267;SDS011;1646;52.450;13.326;2023-02-28T10:29:20;4.70;;;3.30;;
3267;SDS011;1646;52.450;13.326;2023-02-28T10:34:20;3.80;;;1.73;;
3267;SDS011;1646;52.450;13.326;2023-02-28T10:39:38;2.70;;;1.70;;
3267;SDS011;1646;52.450;13.326;2023-02-28T10:44:39;4.37;;;1.80;;
3267;SDS011;1646;52.450;13.326;2023-02-28T10:49:38;4.83;;;1.70;;
3267;SDS011;1646;52.450;13.326;2023-02-28T10:54:45;29.33;;;6.70;;
3267;SDS011;1646;52.450;13.326;2023-02-28T10:59:44;7.70;;;2.37;;
3267;SDS011;1646;52.450;13.326;2023-02-28T11:04:43;3.20;;;2.13;;
3267;SDS011;1646;52.450;13.326;2023-02-28T11:09:45;3.17;;;2.20;;
3267;SDS011;1646;52.450;13.326;2023-02-28T11:14:49;2.57;;;2.37;;
3267;SDS011;1646;52.450;13.326;2023-02-28T11:19:50;4.80;;;2.60;;
3267;SDS011;1646;52.450;13.326;2023-02-28T11:24:51;3.50;;;2.80;;
3267;SDS011;1646;52.450;13.326;2023-02-28T11:29:53;6.00;;;2.40;;
3267;SDS011;1646;52.450;13.326;2023-02-28T11:35:00;6.63;;;2.40;;
3267;SDS011;1646;52.450;13.326;2023-02-28T11:40:00;4.80;;;2.37;;
3267;SDS011;1646;52.450;13.326;2023-02-28T11:45:07;2.40;;;2.20;;
3267;SDS011;1646;52.450;13.326;2023-02-28T11:50:22;5.30;;;2.90;;
3267;SDS011;1646;52.450;13.326;2023-02-28T11:55:35;4.33;;;2.60;;
3267;SDS011;1646;52.450;13.326;2023-02-28T12:00:43;8.30;;;3.10;;
3267;SDS011;1646;52.450;13.326;2023-02-28T12:05:58;6.03;;;3.07;;
3267;SDS011;1646;52.450;13.326;2023-02-28T12:11:09;4.20;;;2.53;;
3267;SDS011;1646;52.450;13.326;2023-02-28T12:16:20;5.10;;;3.03;;
3267;SDS011;1646;52.450;13.326;2023-02-28T12:21:45;5.60;;;2.80;;
3267;SDS011;1646;52.450;13.326;2023-02-28T12:26:54;7.93;;;2.90;;
3267;SDS011;1646;52.450;13.326;2023-02-28T12:31:58;6.80;;;2.73;;
3267;SDS011;1646;52.450;13.326;2023-02-28T12:37:03;4.87;;;3.40;;
3267;SDS011;1646;52.450;13.326;2023-02-28T12:42:05;4.47;;;2.40;;
3267;SDS011;1646;52.450;13.326;2023-02-28T12:47:13;4.87;;;2.83;;
3267;SDS011;1646;52.450;13.326;2023-02-28T12:52:13;5.93;;;3.47;;
3267;SDS011;1646;52.450;13.326;2023-02-28T12:57:18;4.97;;;3.13;;
3267;SDS011;1646;52.450;13.326;2023-02-28T13:02:39;4.60;;;3.00;;
3267;SDS011;1646;52.450;13.326;2023-02-28T13:07:56;5.33;;;3.70;;
3267;SDS011;1646;52.450;13.326;2023-02-28T13:13:15;4.97;;;2.63;;
3267;SDS011;1646;52.450;13.326;2023-02-28T13:18:26;5.33;;;3.00;;
3267;SDS011;1646;52.450;13.326;2023-02-28T13:23:36;4.97;;;2.53;;
3267;SDS011;1646;52.450;13.326;2023-02-28T13:34:11;4.67;;;2.50;;
3267;SDS011;1646;52.450;13.326;2023-02-28T13:50:22;4.80;;;3.00;;
3267;SDS011;1646;52.450;13.326;2023-02-28T13:55:27;5.73;;;2.83;;
3267;SDS011;1646;52.450;13.326;2023-02-28T14:00:32;4.97;;;3.10;;
3267;SDS011;1646;52.450;13.326;2023-02-28T14:05:41;4.77;;;3.03;;
3267;SDS011;1646;52.450;13.326;2023-02-28T14:10:41;5.80;;;2.80;;
3267;SDS011;1646;52.450;13.326;2023-02-28T14:15:46;3.90;;;2.60;;
3267;SDS011;1646;52.450;13.326;2023-02-28T14:20:48;6.07;;;3.03;;
3267;SDS011;1646;52.450;13.326;2023-02-28T14:25:52;4.40;;;2.63;;
3267;SDS011;1646;52.450;13.326;2023-02-28T14:31:00;6.10;;;3.00;;
3267;SDS011;1646;52.450;13.326;2023-02-28T14:36:12;4.83;;;2.70;;
3267;SDS011;1646;52.450;13.326;2023-02-28T14:41:16;4.63;;;2.83;;
3267;SDS011;1646;52.450;13.326;2023-02-28T14:46:18;4.20;;;3.00;;
3267;SDS011;1646;52.450;13.326;2023-02-28T14:51:20;5.23;;;3.07;;
3267;SDS011;1646;52.450;13.326;2023-02-28T14:56:19;5.03;;;3.27;;
3267;SDS011;1646;52.450;13.326;2023-02-28T15:01:20;6.80;;;3.40;;
3267;SDS011;1646;52.450;13.326;2023-02-28T15:06:21;4.30;;;2.50;;
3267;SDS011;1646;52.450;13.326;2023-02-28T15:11:22;7.77;;;3.50;;
3267;SDS011;1646;52.450;13.326;2023-02-28T15:16:20;10.40;;;3.40;;
3267;SDS011;1646;52.450;13.326;2023-02-28T15:21:24;5.50;;;3.27;;
3267;SDS011;1646;52.450;13.326;2023-02-28T15:26:25;4.10;;;2.83;;
3267;SDS011;1646;52.450;13.326;2023-02-28T15:31:27;5.27;;;3.37;;
3267;SDS011;1646;52.450;13.326;2023-02-28T15:36:43;8.67;;;3.60;;
3267;SDS011;1646;52.450;13.326;2023-02-28T15:41:42;6.23;;;3.70;;
3267;SDS011;1646;52.450;13.326;2023-02-28T15:46:40;6.83;;;3.80;;
3267;SDS011;1646;52.450;13.326;2023-02-28T15:51:41;6.30;;;3.67;;
3267;SDS011;1646;52.450;13.326;2023-02-28T15:56:45;5.47;;;3.93;;
3267;SDS011;1646;52.450;13.326;2023-02-28T16:02:02;9.30;;;4.17;;
3267;SDS011;1646;52.450;13.326;2023-02-28T16:07:13;5.57;;;3.60;;
3267;SDS011;1646;52.450;13.326;2023-02-28T16:12:13;6.73;;;3.47;;
3267;SDS011;1646;52.450;13.326;2023-02-28T16:17:14;4.70;;;3.43;;
3267;SDS011;1646;52.450;13.326;2023-02-28T16:22:17;5.93;;;3.27;;
3267;SDS011;1646;52.450;13.326;2023-02-28T16:27:18;11.60;;;3.77;;
3267;SDS011;1646;52.450;13.326;2023-02-28T16:32:22;4.50;;;2.60;;
3267;SDS011;1646;52.450;13.326;2023-02-28T16:37:21;5.83;;;3.17;;
3267;SDS011;1646;52.450;13.326;2023-02-28T16:42:21;7.63;;;3.57;;
3267;SDS011;1646;52.450;13.326;2023-02-28T16:47:23;7.30;;;3.80;;
3267;SDS011;1646;52.450;13.326;2023-02-28T16:52:23;6.10;;;3.20;;
3267;SDS011;1646;52.450;13.326;2023-02-28T16:57:23;5.07;;;2.83;;
3267;SDS011;1646;52.450;13.326;2023-02-28T17:02:21;6.97;;;3.77;;
3267;SDS011;1646;52.450;13.326;2023-02-28T17:07:20;8.23;;;3.47;;
3267;SDS011;1646;52.450;13.326;2023-02-28T17:12:18;5.70;;;3.40;;
3267;SDS011;1646;52.450;13.326;2023-02-28T17:17:20;7.30;;;3.90;;
3267;SDS011;1646;52.450;13.326;2023-02-28T17:22:19;5.03;;;3.30;;
3267;SDS011;1646;52.450;13.326;2023-02-28T17:27:17;6.97;;;2.70;;
3267;SDS011;1646;52.450;13.326;2023-02-28T17:32:15;6.10;;;3.27;;
3267;SDS011;1646;52.450;13.326;2023-02-28T17:37:15;6.43;;;3.40;;
3267;SDS011;1646;52.450;13.326;2023-02-28T17:42:14;4.70;;;3.13;;
3267;SDS011;1646;52.450;13.326;2023-02-28T17:47:12;7.67;;;3.57;;
3267;SDS011;1646;52.450;13.326;2023-02-28T17:52:10;11.10;;;3.70;;
3267;SDS011;1646;52.450;13.326;2023-02-28T17:57:10;9.80;;;3.67;;
3267;SDS011;1646;52.450;13.326;2023-02-28T18:02:12;9.83;;;4.50;;
3267;SDS011;1646;52.450;13.326;2023-02-28T18:07:11;11.80;;;4.50;;
3267;SDS011;1646;52.450;13.326;2023-02-28T18:12:11;8.30;;;4.10;;
3267;SDS011;1646;52.450;13.326;2023-02-28T18:17:09;15.03;;;5.40;;
3267;SDS011;1646;52.450;13.326;2023-02-28T18:22:09;12.10;;;4.50;;
3267;SDS011;1646;52.450;13.326;2023-02-28T18:27:07;11.50;;;5.03;;
3267;SDS011;1646;52.450;13.326;2023-02-28T18:32:08;12.70;;;4.73;;
3267;SDS011;1646;52.450;13.326;2023-02-28T18:37:07;15.47;;;4.73;;
3267;SDS011;1646;52.450;13.326;2023-02-28T18:42:07;8.33;;;4.40;;
3267;SDS011;1646;52.450;13.326;2023-02-28T18:47:05;12.03;;;5.40;;
3267;SDS011;1646;52.450;13.326;2023-02-28T18:52:05;11.70;;;5.20;;
3267;SDS011;1646;52.450;13.326;2023-02-28T18:57:03;11.10;;;5.40;;
3267;SDS011;1646;52.450;13.326;2023-02-28T19:02:02;18.33;;;6.27;;
3267;SDS011;1646;52.450;13.326;2023-02-28T19:07:01;11.50;;;6.60;;
3267;SDS011;1646;52.450;13.326;2023-02-28T19:12:00;15.43;;;6.63;;
3267;SDS011;1646;52.450;13.326;2023-02-28T19:16:58;15.93;;;6.50;;
3267;SDS011;1646;52.450;13.326;2023-02-28T19:21:57;11.93;;;7.17;;
3267;SDS011;1646;52.450;13.326;2023-02-28T19:26:55;12.20;;;6.13;;
3267;SDS011;1646;52.450;13.326;2023-02-28T19:31:55;11.83;;;6.60;;
3267;SDS011;1646;52.450;13.326;2023-02-28T19:36:53;25.73;;;7.00;;
3267;SDS011;1646;52.450;13.326;2023-02-28T19:41:52;13.03;;;6.23;;
3267;SDS011;1646;52.450;13.326;2023-02-28T19:46:50;13.37;;;6.63;;
3267;SDS011;1646;52.450;13.326;2023-02-28T19:51:51;16.23;;;6.70;;
3267;SDS011;1646;52.450;13.326;2023-02-28T19:56:49;12.70;;;6.60;;
3267;SDS011;1646;52.450;13.326;2023-02-28T20:01:49;19.40;;;8.60;;
3267;SDS011;1646;52.450;13.326;2023-02-28T20:06:51;21.43;;;7.80;;
3267;SDS011;1646;52.450;13.326;2023-02-28T20:11:50;12.00;;;7.33;;
3267;SDS011;1646;52.450;13.326;2023-02-28T20:16:48;15.80;;;7.80;;
3267;SDS011;1646;52.450;13.326;2023-02-28T20:21:46;16.73;;;7.30;;
3267;SDS011;1646;52.450;13.326;2023-02-28T20:26:46;15.87;;;7.90;;
3267;SDS011;1646;52.450;13.326;2023-02-28T20:31:44;21.50;;;7.20;;
3267;SDS011;1646;52.450;13.326;2023-02-28T20:36:43;21.57;;;9.07;;
3267;SDS011;1646;52.450;13.326;2023-02-28T20:41:41;14.57;;;7.90;;
3267;SDS011;1646;52.450;13.326;2023-02-28T20:46:41;20.80;;;9.40;;
3267;SDS011;1646;52.450;13.326;2023-02-28T20:51:39;18.17;;;8.30;;
3267;SDS011;1646;52.450;13.326;2023-02-28T20:56:37;20.37;;;10.67;;
3267;SDS011;1646;52.450;13.326;2023-02-28T21:01:36;29.23;;;12.80;;
3267;SDS011;1646;52.450;13.326;2023-02-28T21:06:38;29.70;;;14.47;;
3267;SDS011;1646;52.450;13.326;2023-02-28T21:11:41;20.57;;;10.93;;
3267;SDS011;1646;52.450;13.326;2023-02-28T21:16:41;25.10;;;10.87;;
3267;SDS011;1646;52.450;13.326;2023-02-28T21:21:42;23.13;;;9.97;;
3267;SDS011;1646;52.450;13.326;2023-02-28T21:26:43;23.33;;;11.60;;
3267;SDS011;1646;52.450;13.326;2023-02-28T21:31:43;23.93;;;10.57;;
3267;SDS011;1646;52.450;13.326;2023-02-28T21:36:43;31.07;;;11.80;;
3267;SDS011;1646;52.450;13.326;2023-02-28T21:41:42;18.10;;;9.27;;
3267;SDS011;1646;52.450;13.326;2023-02-28T21:46:41;20.00;;;9.60;;
3267;SDS011;1646;52.450;13.326;2023-02-28T21:51:39;20.57;;;9.67;;
3267;SDS011;1646;52.450;13.326;2023-02-28T21:56:40;24.67;;;12.37;;
3267;SDS011;1646;52.450;13.326;2023-02-28T22:01:38;30.40;;;12.00;;
3267;SDS011;1646;52.450;13.326;2023-02-28T22:06:39;25.53;;;10.70;;
3267;SDS011;1646;52.450;13.326;2023-02-28T22:11:39;27.53;;;11.70;;
3267;SDS011;1646;52.450;13.326;2023-02-28T22:16:37;25.53;;;11.20;;
3267;SDS011;1646;52.450;13.326;2023-02-28T22:21:48;27.20;;;12.53;;
3267;SDS011;1646;52.450;13.326;2023-02-28T22:26:48;23.20;;;10.53;;
3267;SDS011;1646;52.450;13.326;2023-02-28T22:31:47;24.30;;;11.90;;
3267;SDS011;1646;52.450;13.326;2023-02-28T22:36:45;29.93;;;12.23;;
3267;SDS011;1646;52.450;13.326;2023-02-28T22:41:43;22.60;;;10.67;;
3267;SDS011;1646;52.450;13.326;2023-02-28T22:46:43;24.27;;;12.67;;
3267;SDS011;1646;52.450;13.326;2023-02-28T22:51:41;24.67;;;11.60;;
3267;SDS011;1646;52.450;13.326;2023-02-28T22:56:40;32.27;;;14.37;;
3267;SDS011;1646;52.450;13.326;2023-02-28T23:01:38;25.27;;;11.93;;
3267;SDS011;1646;52.450;13.326;2023-02-28T23:06:41;26.93;;;13.60;;
3267;SDS011;1646;52.450;13.326;2023-02-28T23:11:42;25.60;;;12.03;;
3267;SDS011;1646;52.450;13.326;2023-02-28T23:16:42;32.13;;;11.57;;
3267;SDS011;1646;52.450;13.326;2023-02-28T23:21:43;24.50;;;11.87;;
3267;SDS011;1646;52.450;13.326;2023-02-28T23:26:43;22.70;;;10.50;;
3267;SDS011;1646;52.450;13.326;2023-02-28T23:31:44;23.47;;;9.80;;
3267;SDS011;1646;52.450;13.326;2023-02-28T23:36:44;22.53;;;10.23;;
3267;SDS011;1646;52.450;13.326;2023-02-28T23:41:42;26.30;;;10.50;;
3267;SDS011;1646;52.450;13.326;2023-02-28T23:46:41;23.87;;;11.70;;
3267;SDS011;1646;52.450;13.326;2023-02-28T23:51:40;20.97;;;10.33;;
3267;SDS011;1646;52.450;13.326;2023-02-28T23:56:40;22.43;;;11.03;;
